sensor_id;sensor_type;location;lat;lon;timestamp;P1;durP1;ratioP1;P2;durP2;ratioP2
40433;SDS011;26146;51.114;5.654;2023-05-14T00:01:56;14.25;;;8.35;;
40433;SDS011;26146;51.114;5.654;2023-05-14T00:05:57;13.23;;;8.10;;
40433;SDS011;26146;51.114;5.654;2023-05-14T00:09:58;13.45;;;8.20;;
40433;SDS011;26146;51.114;5.654;2023-05-14T00:13:59;13.57;;;8.32;;
40433;SDS011;26146;51.114;5.654;2023-05-14T00:18:01;12.85;;;7.57;;
40433;SDS011;26146;51.114;5.654;2023-05-14T00:22:02;12.18;;;7.40;;
40433;SDS011;26146;51.114;5.654;2023-05-14T00:26:03;12.55;;;7.65;;
40433;SDS011;26146;51.114;5.654;2023-05-14T00:30:04;12.27;;;7.68;;
40433;SDS011;26146;51.114;5.654;2023-05-14T00:34:06;14.20;;;8.43;;
40433;SDS011;26146;51.114;5.654;2023-05-14T00:38:07;14.27;;;8.13;;
40433;SDS011;26146;51.114;5.654;2023-05-14T00:42:08;11.88;;;7.90;;
40433;SDS011;26146;51.114;5.654;2023-05-14T00:46:10;14.70;;;9.65;;
40433;SDS011;26146;51.114;5.654;2023-05-14T00:50:11;14.82;;;9.23;;
40433;SDS011;26146;51.114;5.654;2023-05-14T00:54:15;15.38;;;9.60;;
40433;SDS011;26146;51.114;5.654;2023-05-14T00:58:16;14.23;;;9.32;;
40433;SDS011;26146;51.114;5.654;2023-05-14T01:02:18;16.88;;;10.23;;
40433;SDS011;26146;51.114;5.654;2023-05-14T01:06:25;15.95;;;9.73;;
40433;SDS011;26146;51.114;5.654;2023-05-14T01:14:46;15.27;;;9.85;;
40433;SDS011;26146;51.114;5.654;2023-05-14T01:18:55;15.52;;;10.18;;
40433;SDS011;26146;51.114;5.654;2023-05-14T01:22:57;15.85;;;10.60;;
40433;SDS011;26146;51.114;5.654;2023-05-14T01:27:06;15.02;;;10.00;;
40433;SDS011;26146;51.114;5.654;2023-05-14T01:31:15;14.93;;;9.68;;
40433;SDS011;26146;51.114;5.654;2023-05-14T01:35:27;15.82;;;9.50;;
40433;SDS011;26146;51.114;5.654;2023-05-14T01:39:29;16.35;;;9.65;;
40433;SDS011;26146;51.114;5.654;2023-05-14T01:43:31;15.45;;;10.20;;
40433;SDS011;26146;51.114;5.654;2023-05-14T01:47:33;17.08;;;10.82;;
40433;SDS011;26146;51.114;5.654;2023-05-14T01:51:34;14.45;;;9.88;;
40433;SDS011;26146;51.114;5.654;2023-05-14T01:55:35;18.23;;;10.48;;
40433;SDS011;26146;51.114;5.654;2023-05-14T01:59:37;16.67;;;10.77;;
40433;SDS011;26146;51.114;5.654;2023-05-14T02:03:38;15.35;;;10.57;;
40433;SDS011;26146;51.114;5.654;2023-05-14T02:07:39;17.80;;;10.02;;
40433;SDS011;26146;51.114;5.654;2023-05-14T02:11:40;16.02;;;10.18;;
40433;SDS011;26146;51.114;5.654;2023-05-14T02:15:41;17.98;;;10.20;;
40433;SDS011;26146;51.114;5.654;2023-05-14T02:19:45;19.33;;;11.07;;
40433;SDS011;26146;51.114;5.654;2023-05-14T02:23:46;16.95;;;10.50;;
40433;SDS011;26146;51.114;5.654;2023-05-14T02:27:48;18.50;;;10.52;;
40433;SDS011;26146;51.114;5.654;2023-05-14T02:31:50;17.23;;;11.10;;
40433;SDS011;26146;51.114;5.654;2023-05-14T02:35:51;16.92;;;11.15;;
40433;SDS011;26146;51.114;5.654;2023-05-14T02:39:52;19.30;;;11.23;;
40433;SDS011;26146;51.114;5.654;2023-05-14T02:43:53;16.83;;;11.20;;
40433;SDS011;26146;51.114;5.654;2023-05-14T02:47:54;19.90;;;11.68;;
40433;SDS011;26146;51.114;5.654;2023-05-14T02:51:55;21.40;;;12.60;;
40433;SDS011;26146;51.114;5.654;2023-05-14T02:55:57;18.07;;;12.13;;
40433;SDS011;26146;51.114;5.654;2023-05-14T02:59:58;19.38;;;11.10;;
40433;SDS011;26146;51.114;5.654;2023-05-14T03:03:59;17.85;;;11.80;;
40433;SDS011;26146;51.114;5.654;2023-05-14T03:08:00;19.08;;;12.32;;
40433;SDS011;26146;51.114;5.654;2023-05-14T03:12:01;17.25;;;11.68;;
40433;SDS011;26146;51.114;5.654;2023-05-14T03:16:03;18.27;;;11.50;;
40433;SDS011;26146;51.114;5.654;2023-05-14T03:20:04;17.47;;;11.60;;
40433;SDS011;26146;51.114;5.654;2023-05-14T03:24:06;18.80;;;12.47;;
40433;SDS011;26146;51.114;5.654;2023-05-14T03:28:07;18.60;;;11.97;;
40433;SDS011;26146;51.114;5.654;2023-05-14T03:32:09;21.58;;;12.63;;
40433;SDS011;26146;51.114;5.654;2023-05-14T03:36:10;20.42;;;12.82;;
40433;SDS011;26146;51.114;5.654;2023-05-14T03:40:11;20.87;;;12.93;;
40433;SDS011;26146;51.114;5.654;2023-05-14T03:44:12;21.20;;;12.90;;
40433;SDS011;26146;51.114;5.654;2023-05-14T03:48:13;21.10;;;12.97;;
40433;SDS011;26146;51.114;5.654;2023-05-14T03:52:14;18.37;;;12.60;;
40433;SDS011;26146;51.114;5.654;2023-05-14T03:56:16;20.37;;;13.23;;
40433;SDS011;26146;51.114;5.654;2023-05-14T04:00:17;18.07;;;12.87;;
40433;SDS011;26146;51.114;5.654;2023-05-14T04:04:18;18.50;;;13.67;;
40433;SDS011;26146;51.114;5.654;2023-05-14T04:08:19;18.57;;;12.40;;
40433;SDS011;26146;51.114;5.654;2023-05-14T04:12:20;18.88;;;11.80;;
40433;SDS011;26146;51.114;5.654;2023-05-14T04:16:21;17.97;;;11.30;;
40433;SDS011;26146;51.114;5.654;2023-05-14T04:20:22;19.70;;;11.93;;
40433;SDS011;26146;51.114;5.654;2023-05-14T04:24:23;17.93;;;12.20;;
40433;SDS011;26146;51.114;5.654;2023-05-14T04:28:25;22.27;;;14.37;;
40433;SDS011;26146;51.114;5.654;2023-05-14T04:32:26;23.03;;;13.43;;
40433;SDS011;26146;51.114;5.654;2023-05-14T04:36:27;21.57;;;13.90;;
40433;SDS011;26146;51.114;5.654;2023-05-14T04:40:28;20.77;;;13.30;;
40433;SDS011;26146;51.114;5.654;2023-05-14T04:44:30;24.43;;;14.37;;
40433;SDS011;26146;51.114;5.654;2023-05-14T04:48:32;22.13;;;14.87;;
40433;SDS011;26146;51.114;5.654;2023-05-14T04:52:34;19.77;;;13.43;;
40433;SDS011;26146;51.114;5.654;2023-05-14T04:56:35;21.23;;;14.57;;
40433;SDS011;26146;51.114;5.654;2023-05-14T05:00:36;22.27;;;14.63;;
40433;SDS011;26146;51.114;5.654;2023-05-14T05:04:38;21.58;;;14.07;;
40433;SDS011;26146;51.114;5.654;2023-05-14T05:08:39;22.05;;;13.82;;
40433;SDS011;26146;51.114;5.654;2023-05-14T05:12:40;21.98;;;14.25;;
40433;SDS011;26146;51.114;5.654;2023-05-14T05:16:42;21.55;;;14.40;;
40433;SDS011;26146;51.114;5.654;2023-05-14T05:20:43;28.73;;;15.73;;
40433;SDS011;26146;51.114;5.654;2023-05-14T05:24:44;23.20;;;14.98;;
40433;SDS011;26146;51.114;5.654;2023-05-14T05:28:46;21.27;;;14.85;;
40433;SDS011;26146;51.114;5.654;2023-05-14T05:32:47;21.27;;;15.25;;
40433;SDS011;26146;51.114;5.654;2023-05-14T05:36:48;21.00;;;14.52;;
40433;SDS011;26146;51.114;5.654;2023-05-14T05:40:49;21.02;;;13.65;;
40433;SDS011;26146;51.114;5.654;2023-05-14T05:44:50;24.65;;;14.32;;
40433;SDS011;26146;51.114;5.654;2023-05-14T05:48:51;23.35;;;14.77;;
40433;SDS011;26146;51.114;5.654;2023-05-14T05:52:52;21.17;;;14.45;;
40433;SDS011;26146;51.114;5.654;2023-05-14T05:56:53;21.92;;;14.90;;
40433;SDS011;26146;51.114;5.654;2023-05-14T06:00:54;21.15;;;14.57;;
40433;SDS011;26146;51.114;5.654;2023-05-14T06:04:56;21.63;;;15.48;;
40433;SDS011;26146;51.114;5.654;2023-05-14T06:08:58;23.95;;;15.70;;
40433;SDS011;26146;51.114;5.654;2023-05-14T06:13:01;21.10;;;15.20;;
40433;SDS011;26146;51.114;5.654;2023-05-14T06:17:02;23.35;;;15.95;;
40433;SDS011;26146;51.114;5.654;2023-05-14T06:21:03;22.23;;;15.63;;
40433;SDS011;26146;51.114;5.654;2023-05-14T06:25:04;21.13;;;15.70;;
40433;SDS011;26146;51.114;5.654;2023-05-14T06:29:06;24.55;;;16.35;;
40433;SDS011;26146;51.114;5.654;2023-05-14T06:33:07;22.13;;;15.88;;
40433;SDS011;26146;51.114;5.654;2023-05-14T06:37:08;26.25;;;16.83;;
40433;SDS011;26146;51.114;5.654;2023-05-14T06:41:11;23.30;;;16.08;;
40433;SDS011;26146;51.114;5.654;2023-05-14T06:45:12;22.95;;;16.00;;
40433;SDS011;26146;51.114;5.654;2023-05-14T06:49:13;26.80;;;16.02;;
40433;SDS011;26146;51.114;5.654;2023-05-14T06:53:14;34.15;;;16.67;;
40433;SDS011;26146;51.114;5.654;2023-05-14T06:57:15;25.80;;;17.55;;
40433;SDS011;26146;51.114;5.654;2023-05-14T07:01:16;23.08;;;16.50;;
40433;SDS011;26146;51.114;5.654;2023-05-14T07:05:18;23.02;;;17.02;;
40433;SDS011;26146;51.114;5.654;2023-05-14T07:09:19;23.20;;;17.13;;
40433;SDS011;26146;51.114;5.654;2023-05-14T07:13:20;23.77;;;16.58;;
40433;SDS011;26146;51.114;5.654;2023-05-14T07:17:21;23.27;;;16.67;;
40433;SDS011;26146;51.114;5.654;2023-05-14T07:21:22;27.60;;;17.08;;
40433;SDS011;26146;51.114;5.654;2023-05-14T07:25:23;23.23;;;16.40;;
40433;SDS011;26146;51.114;5.654;2023-05-14T07:29:25;21.73;;;15.88;;
40433;SDS011;26146;51.114;5.654;2023-05-14T07:33:26;22.92;;;15.75;;
40433;SDS011;26146;51.114;5.654;2023-05-14T07:37:27;22.52;;;16.13;;
40433;SDS011;26146;51.114;5.654;2023-05-14T07:41:29;22.70;;;16.10;;
40433;SDS011;26146;51.114;5.654;2023-05-14T07:45:30;22.45;;;16.13;;
40433;SDS011;26146;51.114;5.654;2023-05-14T07:49:32;24.27;;;16.10;;
40433;SDS011;26146;51.114;5.654;2023-05-14T07:53:33;22.95;;;15.48;;
40433;SDS011;26146;51.114;5.654;2023-05-14T07:57:34;20.88;;;15.18;;
40433;SDS011;26146;51.114;5.654;2023-05-14T08:01:35;21.42;;;15.50;;
40433;SDS011;26146;51.114;5.654;2023-05-14T08:05:36;21.33;;;14.90;;
40433;SDS011;26146;51.114;5.654;2023-05-14T08:09:37;21.45;;;14.70;;
40433;SDS011;26146;51.114;5.654;2023-05-14T08:13:38;23.60;;;15.75;;
40433;SDS011;26146;51.114;5.654;2023-05-14T08:17:39;22.70;;;15.20;;
40433;SDS011;26146;51.114;5.654;2023-05-14T08:21:41;20.63;;;15.00;;
40433;SDS011;26146;51.114;5.654;2023-05-14T08:25:42;20.45;;;14.48;;
40433;SDS011;26146;51.114;5.654;2023-05-14T08:29:43;21.17;;;15.02;;
40433;SDS011;26146;51.114;5.654;2023-05-14T08:33:44;24.70;;;15.05;;
40433;SDS011;26146;51.114;5.654;2023-05-14T08:37:45;20.13;;;14.55;;
40433;SDS011;26146;51.114;5.654;2023-05-14T08:41:46;21.58;;;15.27;;
40433;SDS011;26146;51.114;5.654;2023-05-14T08:45:48;21.60;;;14.55;;
40433;SDS011;26146;51.114;5.654;2023-05-14T08:49:53;19.00;;;14.05;;
40433;SDS011;26146;51.114;5.654;2023-05-14T08:54:01;21.38;;;14.13;;
40433;SDS011;26146;51.114;5.654;2023-05-14T08:58:03;18.50;;;13.52;;
40433;SDS011;26146;51.114;5.654;2023-05-14T09:02:04;20.73;;;13.48;;
40433;SDS011;26146;51.114;5.654;2023-05-14T09:06:07;18.92;;;13.35;;
40433;SDS011;26146;51.114;5.654;2023-05-14T09:10:10;18.48;;;13.90;;
40433;SDS011;26146;51.114;5.654;2023-05-14T09:14:11;21.90;;;13.43;;
40433;SDS011;26146;51.114;5.654;2023-05-14T09:18:12;19.00;;;13.23;;
40433;SDS011;26146;51.114;5.654;2023-05-14T09:22:14;18.88;;;12.98;;
40433;SDS011;26146;51.114;5.654;2023-05-14T09:26:16;19.85;;;12.88;;
40433;SDS011;26146;51.114;5.654;2023-05-14T09:30:18;20.08;;;12.35;;
40433;SDS011;26146;51.114;5.654;2023-05-14T09:34:23;17.85;;;11.88;;
40433;SDS011;26146;51.114;5.654;2023-05-14T09:38:31;19.35;;;12.23;;
40433;SDS011;26146;51.114;5.654;2023-05-14T09:42:33;19.05;;;11.13;;
40433;SDS011;26146;51.114;5.654;2023-05-14T09:46:34;17.02;;;11.20;;
40433;SDS011;26146;51.114;5.654;2023-05-14T09:50:42;19.33;;;11.50;;
40433;SDS011;26146;51.114;5.654;2023-05-14T09:54:43;18.33;;;11.82;;
40433;SDS011;26146;51.114;5.654;2023-05-14T09:58:46;18.80;;;12.48;;
40433;SDS011;26146;51.114;5.654;2023-05-14T10:02:47;16.75;;;11.15;;
40433;SDS011;26146;51.114;5.654;2023-05-14T10:06:52;17.55;;;11.43;;
40433;SDS011;26146;51.114;5.654;2023-05-14T10:10:55;17.95;;;11.23;;
40433;SDS011;26146;51.114;5.654;2023-05-14T10:14:58;18.50;;;11.15;;
40433;SDS011;26146;51.114;5.654;2023-05-14T10:19:06;16.30;;;10.70;;
40433;SDS011;26146;51.114;5.654;2023-05-14T10:23:09;16.23;;;10.52;;
40433;SDS011;26146;51.114;5.654;2023-05-14T10:27:10;15.60;;;10.15;;
40433;SDS011;26146;51.114;5.654;2023-05-14T10:31:12;16.25;;;10.40;;
40433;SDS011;26146;51.114;5.654;2023-05-14T10:35:14;16.13;;;10.00;;
40433;SDS011;26146;51.114;5.654;2023-05-14T10:39:21;16.08;;;10.18;;
40433;SDS011;26146;51.114;5.654;2023-05-14T10:43:24;14.88;;;9.40;;
40433;SDS011;26146;51.114;5.654;2023-05-14T10:47:30;12.93;;;8.30;;
40433;SDS011;26146;51.114;5.654;2023-05-14T10:51:32;14.10;;;9.77;;
40433;SDS011;26146;51.114;5.654;2023-05-14T10:55:34;13.95;;;8.85;;
40433;SDS011;26146;51.114;5.654;2023-05-14T10:59:35;15.18;;;9.65;;
40433;SDS011;26146;51.114;5.654;2023-05-14T11:03:43;15.63;;;9.00;;
40433;SDS011;26146;51.114;5.654;2023-05-14T11:07:46;15.05;;;9.60;;
40433;SDS011;26146;51.114;5.654;2023-05-14T11:11:48;14.30;;;8.95;;
40433;SDS011;26146;51.114;5.654;2023-05-14T11:15:50;14.30;;;8.75;;
40433;SDS011;26146;51.114;5.654;2023-05-14T11:19:52;16.95;;;9.45;;
40433;SDS011;26146;51.114;5.654;2023-05-14T11:23:55;15.80;;;9.27;;
40433;SDS011;26146;51.114;5.654;2023-05-14T11:27:56;14.65;;;8.82;;
40433;SDS011;26146;51.114;5.654;2023-05-14T11:32:00;13.40;;;7.90;;
40433;SDS011;26146;51.114;5.654;2023-05-14T11:36:04;13.55;;;7.20;;
40433;SDS011;26146;51.114;5.654;2023-05-14T11:40:06;12.63;;;8.18;;
40433;SDS011;26146;51.114;5.654;2023-05-14T11:44:11;15.15;;;7.60;;
40433;SDS011;26146;51.114;5.654;2023-05-14T11:48:12;12.82;;;7.63;;
40433;SDS011;26146;51.114;5.654;2023-05-14T11:52:14;13.23;;;7.65;;
40433;SDS011;26146;51.114;5.654;2023-05-14T12:00:20;12.10;;;6.60;;
40433;SDS011;26146;51.114;5.654;2023-05-14T12:04:23;12.20;;;6.35;;
40433;SDS011;26146;51.114;5.654;2023-05-14T12:08:26;11.65;;;5.97;;
40433;SDS011;26146;51.114;5.654;2023-05-14T12:12:33;10.73;;;5.33;;
40433;SDS011;26146;51.114;5.654;2023-05-14T12:16:35;11.68;;;6.00;;
40433;SDS011;26146;51.114;5.654;2023-05-14T12:20:45;12.65;;;5.85;;
40433;SDS011;26146;51.114;5.654;2023-05-14T12:24:55;9.70;;;4.47;;
40433;SDS011;26146;51.114;5.654;2023-05-14T12:29:02;8.93;;;4.30;;
40433;SDS011;26146;51.114;5.654;2023-05-14T12:33:04;7.60;;;3.55;;
40433;SDS011;26146;51.114;5.654;2023-05-14T12:37:05;10.45;;;4.47;;
40433;SDS011;26146;51.114;5.654;2023-05-14T12:41:06;10.68;;;4.18;;
40433;SDS011;26146;51.114;5.654;2023-05-14T12:45:07;9.63;;;4.10;;
40433;SDS011;26146;51.114;5.654;2023-05-14T12:49:09;8.48;;;3.40;;
40433;SDS011;26146;51.114;5.654;2023-05-14T12:53:10;8.35;;;3.03;;
40433;SDS011;26146;51.114;5.654;2023-05-14T12:57:15;9.43;;;3.50;;
40433;SDS011;26146;51.114;5.654;2023-05-14T13:01:22;8.77;;;3.85;;
40433;SDS011;26146;51.114;5.654;2023-05-14T13:05:35;8.00;;;3.90;;
40433;SDS011;26146;51.114;5.654;2023-05-14T13:09:37;7.82;;;4.10;;
40433;SDS011;26146;51.114;5.654;2023-05-14T13:13:38;7.97;;;3.35;;
40433;SDS011;26146;51.114;5.654;2023-05-14T13:17:39;8.60;;;3.20;;
40433;SDS011;26146;51.114;5.654;2023-05-14T13:21:40;7.88;;;2.75;;
40433;SDS011;26146;51.114;5.654;2023-05-14T13:25:41;6.85;;;3.25;;
40433;SDS011;26146;51.114;5.654;2023-05-14T13:29:42;7.20;;;2.70;;
40433;SDS011;26146;51.114;5.654;2023-05-14T13:33:44;6.07;;;2.60;;
40433;SDS011;26146;51.114;5.654;2023-05-14T13:37:45;10.13;;;4.70;;
40433;SDS011;26146;51.114;5.654;2023-05-14T13:41:47;10.50;;;5.05;;
40433;SDS011;26146;51.114;5.654;2023-05-14T13:45:49;8.90;;;4.43;;
40433;SDS011;26146;51.114;5.654;2023-05-14T13:49:54;8.68;;;3.72;;
40433;SDS011;26146;51.114;5.654;2023-05-14T13:53:55;7.68;;;3.67;;
40433;SDS011;26146;51.114;5.654;2023-05-14T13:57:56;9.10;;;3.65;;
40433;SDS011;26146;51.114;5.654;2023-05-14T14:01:58;8.18;;;3.47;;
40433;SDS011;26146;51.114;5.654;2023-05-14T14:05:59;6.65;;;3.28;;
40433;SDS011;26146;51.114;5.654;2023-05-14T14:10:01;8.88;;;3.70;;
40433;SDS011;26146;51.114;5.654;2023-05-14T14:14:02;8.02;;;3.08;;
40433;SDS011;26146;51.114;5.654;2023-05-14T14:18:03;8.15;;;2.80;;
40433;SDS011;26146;51.114;5.654;2023-05-14T14:22:05;6.78;;;2.60;;
40433;SDS011;26146;51.114;5.654;2023-05-14T14:26:06;8.40;;;2.40;;
40433;SDS011;26146;51.114;5.654;2023-05-14T14:30:08;8.85;;;3.03;;
40433;SDS011;26146;51.114;5.654;2023-05-14T14:34:16;7.03;;;2.78;;
40433;SDS011;26146;51.114;5.654;2023-05-14T14:38:17;7.72;;;2.78;;
40433;SDS011;26146;51.114;5.654;2023-05-14T14:42:18;7.57;;;2.85;;
40433;SDS011;26146;51.114;5.654;2023-05-14T14:46:20;8.00;;;3.28;;
40433;SDS011;26146;51.114;5.654;2023-05-14T14:50:21;8.20;;;3.70;;
40433;SDS011;26146;51.114;5.654;2023-05-14T14:54:22;6.80;;;2.95;;
40433;SDS011;26146;51.114;5.654;2023-05-14T14:58:23;8.40;;;3.30;;
40433;SDS011;26146;51.114;5.654;2023-05-14T15:02:25;8.65;;;3.00;;
40433;SDS011;26146;51.114;5.654;2023-05-14T15:06:26;7.30;;;2.80;;
40433;SDS011;26146;51.114;5.654;2023-05-14T15:10:27;8.13;;;3.20;;
40433;SDS011;26146;51.114;5.654;2023-05-14T15:14:29;8.35;;;3.40;;
40433;SDS011;26146;51.114;5.654;2023-05-14T15:18:30;8.55;;;3.10;;
40433;SDS011;26146;51.114;5.654;2023-05-14T15:22:32;8.88;;;3.08;;
40433;SDS011;26146;51.114;5.654;2023-05-14T15:26:33;14.20;;;7.20;;
40433;SDS011;26146;51.114;5.654;2023-05-14T15:30:34;12.00;;;6.10;;
40433;SDS011;26146;51.114;5.654;2023-05-14T15:34:36;47.67;;;27.63;;
40433;SDS011;26146;51.114;5.654;2023-05-14T15:38:37;41.15;;;21.23;;
40433;SDS011;26146;51.114;5.654;2023-05-14T15:42:39;6.65;;;2.70;;
40433;SDS011;26146;51.114;5.654;2023-05-14T15:46:41;7.38;;;2.67;;
40433;SDS011;26146;51.114;5.654;2023-05-14T15:50:42;7.80;;;3.00;;
40433;SDS011;26146;51.114;5.654;2023-05-14T15:54:45;7.43;;;2.75;;
40433;SDS011;26146;51.114;5.654;2023-05-14T15:58:46;7.72;;;3.22;;
40433;SDS011;26146;51.114;5.654;2023-05-14T16:02:48;6.95;;;2.90;;
40433;SDS011;26146;51.114;5.654;2023-05-14T16:06:49;9.00;;;2.78;;
40433;SDS011;26146;51.114;5.654;2023-05-14T16:10:50;9.15;;;2.72;;
40433;SDS011;26146;51.114;5.654;2023-05-14T16:14:51;7.68;;;2.63;;
40433;SDS011;26146;51.114;5.654;2023-05-14T16:18:53;7.43;;;2.65;;
40433;SDS011;26146;51.114;5.654;2023-05-14T16:22:54;8.35;;;2.50;;
40433;SDS011;26146;51.114;5.654;2023-05-14T16:26:55;12.57;;;2.80;;
40433;SDS011;26146;51.114;5.654;2023-05-14T16:30:56;6.45;;;2.63;;
40433;SDS011;26146;51.114;5.654;2023-05-14T16:34:57;6.43;;;2.42;;
40433;SDS011;26146;51.114;5.654;2023-05-14T16:39:01;6.30;;;2.70;;
40433;SDS011;26146;51.114;5.654;2023-05-14T16:43:02;7.60;;;2.80;;
40433;SDS011;26146;51.114;5.654;2023-05-14T16:47:03;9.32;;;3.33;;
40433;SDS011;26146;51.114;5.654;2023-05-14T16:51:04;8.45;;;2.90;;
40433;SDS011;26146;51.114;5.654;2023-05-14T16:55:06;8.35;;;3.15;;
40433;SDS011;26146;51.114;5.654;2023-05-14T16:59:07;6.93;;;3.10;;
40433;SDS011;26146;51.114;5.654;2023-05-14T17:03:08;7.28;;;3.00;;
40433;SDS011;26146;51.114;5.654;2023-05-14T17:07:09;7.82;;;3.08;;
40433;SDS011;26146;51.114;5.654;2023-05-14T17:11:10;8.25;;;3.03;;
40433;SDS011;26146;51.114;5.654;2023-05-14T17:15:11;8.60;;;3.38;;
40433;SDS011;26146;51.114;5.654;2023-05-14T17:19:13;8.90;;;3.38;;
40433;SDS011;26146;51.114;5.654;2023-05-14T17:23:14;8.35;;;3.30;;
40433;SDS011;26146;51.114;5.654;2023-05-14T17:27:15;9.88;;;3.22;;
40433;SDS011;26146;51.114;5.654;2023-05-14T17:31:16;8.98;;;3.40;;
40433;SDS011;26146;51.114;5.654;2023-05-14T17:35:17;7.93;;;3.08;;
40433;SDS011;26146;51.114;5.654;2023-05-14T17:39:18;9.90;;;3.20;;
40433;SDS011;26146;51.114;5.654;2023-05-14T17:43:19;9.80;;;3.45;;
40433;SDS011;26146;51.114;5.654;2023-05-14T17:47:20;9.13;;;3.22;;
40433;SDS011;26146;51.114;5.654;2023-05-14T17:51:21;9.45;;;3.22;;
40433;SDS011;26146;51.114;5.654;2023-05-14T17:55:22;9.48;;;3.20;;
40433;SDS011;26146;51.114;5.654;2023-05-14T17:59:24;8.18;;;3.25;;
40433;SDS011;26146;51.114;5.654;2023-05-14T18:03:25;9.88;;;3.08;;
40433;SDS011;26146;51.114;5.654;2023-05-14T18:07:26;7.93;;;3.20;;
40433;SDS011;26146;51.114;5.654;2023-05-14T18:11:29;10.40;;;3.50;;
40433;SDS011;26146;51.114;5.654;2023-05-14T18:15:34;8.52;;;3.45;;
40433;SDS011;26146;51.114;5.654;2023-05-14T18:19:35;7.65;;;3.22;;
40433;SDS011;26146;51.114;5.654;2023-05-14T18:23:36;10.05;;;3.92;;
40433;SDS011;26146;51.114;5.654;2023-05-14T18:27:38;8.65;;;3.38;;
40433;SDS011;26146;51.114;5.654;2023-05-14T18:31:43;9.65;;;3.35;;
40433;SDS011;26146;51.114;5.654;2023-05-14T18:35:44;8.95;;;3.67;;
40433;SDS011;26146;51.114;5.654;2023-05-14T18:39:45;9.00;;;3.75;;
40433;SDS011;26146;51.114;5.654;2023-05-14T18:43:46;9.68;;;3.53;;
40433;SDS011;26146;51.114;5.654;2023-05-14T18:47:48;8.65;;;3.03;;
40433;SDS011;26146;51.114;5.654;2023-05-14T18:51:50;9.15;;;3.58;;
40433;SDS011;26146;51.114;5.654;2023-05-14T18:55:51;10.98;;;3.90;;
40433;SDS011;26146;51.114;5.654;2023-05-14T18:59:52;8.35;;;3.50;;
40433;SDS011;26146;51.114;5.654;2023-05-14T19:03:53;8.20;;;3.65;;
40433;SDS011;26146;51.114;5.654;2023-05-14T19:07:55;8.48;;;3.80;;
40433;SDS011;26146;51.114;5.654;2023-05-14T19:11:56;9.23;;;4.45;;
40433;SDS011;26146;51.114;5.654;2023-05-14T19:15:57;12.30;;;6.40;;
40433;SDS011;26146;51.114;5.654;2023-05-14T19:19:58;12.07;;;6.65;;
40433;SDS011;26146;51.114;5.654;2023-05-14T19:23:59;14.70;;;6.95;;
40433;SDS011;26146;51.114;5.654;2023-05-14T19:28:01;14.68;;;7.57;;
40433;SDS011;26146;51.114;5.654;2023-05-14T19:32:04;15.57;;;8.05;;
40433;SDS011;26146;51.114;5.654;2023-05-14T19:36:05;18.90;;;8.18;;
40433;SDS011;26146;51.114;5.654;2023-05-14T19:40:07;16.58;;;8.80;;
40433;SDS011;26146;51.114;5.654;2023-05-14T19:44:09;18.95;;;8.93;;
40433;SDS011;26146;51.114;5.654;2023-05-14T19:48:10;18.08;;;9.50;;
40433;SDS011;26146;51.114;5.654;2023-05-14T19:52:12;19.88;;;9.10;;
40433;SDS011;26146;51.114;5.654;2023-05-14T19:56:14;19.98;;;9.57;;
40433;SDS011;26146;51.114;5.654;2023-05-14T20:00:15;18.80;;;9.45;;
40433;SDS011;26146;51.114;5.654;2023-05-14T20:04:17;21.52;;;10.07;;
40433;SDS011;26146;51.114;5.654;2023-05-14T20:08:19;20.45;;;10.38;;
40433;SDS011;26146;51.114;5.654;2023-05-14T20:12:20;20.48;;;10.60;;
40433;SDS011;26146;51.114;5.654;2023-05-14T20:16:21;19.60;;;10.45;;
40433;SDS011;26146;51.114;5.654;2023-05-14T20:20:23;22.60;;;10.50;;
40433;SDS011;26146;51.114;5.654;2023-05-14T20:24:24;21.05;;;10.77;;
40433;SDS011;26146;51.114;5.654;2023-05-14T20:28:26;20.80;;;11.05;;
40433;SDS011;26146;51.114;5.654;2023-05-14T20:32:27;20.63;;;11.32;;
40433;SDS011;26146;51.114;5.654;2023-05-14T20:36:28;20.35;;;11.90;;
40433;SDS011;26146;51.114;5.654;2023-05-14T20:40:30;19.10;;;12.10;;
40433;SDS011;26146;51.114;5.654;2023-05-14T20:44:32;25.45;;;12.05;;
40433;SDS011;26146;51.114;5.654;2023-05-14T20:48:33;22.60;;;12.55;;
40433;SDS011;26146;51.114;5.654;2023-05-14T20:52:34;22.08;;;12.30;;
40433;SDS011;26146;51.114;5.654;2023-05-14T20:56:35;28.05;;;12.68;;
40433;SDS011;26146;51.114;5.654;2023-05-14T21:00:36;23.67;;;12.52;;
40433;SDS011;26146;51.114;5.654;2023-05-14T21:04:38;23.02;;;12.52;;
40433;SDS011;26146;51.114;5.654;2023-05-14T21:08:39;23.42;;;13.25;;
40433;SDS011;26146;51.114;5.654;2023-05-14T21:12:40;27.60;;;12.82;;
40433;SDS011;26146;51.114;5.654;2023-05-14T21:16:42;23.42;;;13.45;;
40433;SDS011;26146;51.114;5.654;2023-05-14T21:20:43;24.85;;;13.85;;
40433;SDS011;26146;51.114;5.654;2023-05-14T21:24:44;24.08;;;13.52;;
40433;SDS011;26146;51.114;5.654;2023-05-14T21:28:45;24.02;;;13.63;;
40433;SDS011;26146;51.114;5.654;2023-05-14T21:32:47;23.30;;;13.93;;
40433;SDS011;26146;51.114;5.654;2023-05-14T21:36:48;26.60;;;13.57;;
40433;SDS011;26146;51.114;5.654;2023-05-14T21:40:49;25.90;;;14.45;;
40433;SDS011;26146;51.114;5.654;2023-05-14T21:44:50;25.35;;;13.65;;
40433;SDS011;26146;51.114;5.654;2023-05-14T21:48:51;26.20;;;14.57;;
40433;SDS011;26146;51.114;5.654;2023-05-14T21:52:53;26.80;;;14.68;;
40433;SDS011;26146;51.114;5.654;2023-05-14T21:56:54;24.70;;;14.85;;
40433;SDS011;26146;51.114;5.654;2023-05-14T22:00:55;24.85;;;14.13;;
40433;SDS011;26146;51.114;5.654;2023-05-14T22:04:57;26.25;;;14.38;;
40433;SDS011;26146;51.114;5.654;2023-05-14T22:08:58;29.48;;;14.98;;
40433;SDS011;26146;51.114;5.654;2023-05-14T22:12:59;24.85;;;14.75;;
40433;SDS011;26146;51.114;5.654;2023-05-14T22:17:00;27.58;;;16.20;;
40433;SDS011;26146;51.114;5.654;2023-05-14T22:21:01;29.42;;;15.52;;
40433;SDS011;26146;51.114;5.654;2023-05-14T22:25:03;27.00;;;15.18;;
40433;SDS011;26146;51.114;5.654;2023-05-14T22:29:04;30.92;;;15.85;;
40433;SDS011;26146;51.114;5.654;2023-05-14T22:33:05;30.15;;;14.82;;
40433;SDS011;26146;51.114;5.654;2023-05-14T22:37:06;27.27;;;15.25;;
40433;SDS011;26146;51.114;5.654;2023-05-14T22:41:08;28.23;;;15.75;;
40433;SDS011;26146;51.114;5.654;2023-05-14T22:45:10;25.92;;;14.82;;
40433;SDS011;26146;51.114;5.654;2023-05-14T22:49:11;28.38;;;16.08;;
40433;SDS011;26146;51.114;5.654;2023-05-14T22:53:12;31.70;;;16.75;;
40433;SDS011;26146;51.114;5.654;2023-05-14T22:57:13;30.55;;;16.23;;
40433;SDS011;26146;51.114;5.654;2023-05-14T23:01:14;26.60;;;16.52;;
40433;SDS011;26146;51.114;5.654;2023-05-14T23:05:15;29.90;;;15.50;;
40433;SDS011;26146;51.114;5.654;2023-05-14T23:09:16;29.48;;;15.43;;
40433;SDS011;26146;51.114;5.654;2023-05-14T23:13:18;26.25;;;15.55;;
40433;SDS011;26146;51.114;5.654;2023-05-14T23:17:19;29.30;;;15.75;;
40433;SDS011;26146;51.114;5.654;2023-05-14T23:21:20;27.33;;;15.48;;
40433;SDS011;26146;51.114;5.654;2023-05-14T23:25:21;27.02;;;16.05;;
40433;SDS011;26146;51.114;5.654;2023-05-14T23:29:23;33.38;;;16.50;;
40433;SDS011;26146;51.114;5.654;2023-05-14T23:33:24;27.90;;;16.33;;
40433;SDS011;26146;51.114;5.654;2023-05-14T23:37:25;32.65;;;16.55;;
40433;SDS011;26146;51.114;5.654;2023-05-14T23:41:26;29.60;;;16.08;;
40433;SDS011;26146;51.114;5.654;2023-05-14T23:45:27;29.73;;;16.73;;
40433;SDS011;26146;51.114;5.654;2023-05-14T23:49:29;29.10;;;16.45;;
40433;SDS011;26146;51.114;5.654;2023-05-14T23:53:30;27.83;;;17.52;;
40433;SDS011;26146;51.114;5.654;2023-05-14T23:57:31;29.15;;;16.52;;
